Time;durP1;ratioP1;P1;durP2;ratioP2;P2;SDS_P1;SDS_P2;PMS_P1;PMS_P2;Temp;Humidity;BMP_temperature;BMP_pressure;BME280_temperature;BME280_humidity;BME280_pressure;Samples;Min_cycle;Max_cycle;Signal;HPM_P1;HPM_P2
2022/10/06 00:01:11;;;;;;;0.50;0.30;;;;;;;;;;4162543;28;20559;-36
2022/10/06 00:03:12;;;;;;;0.43;0.30;;;;;;;;;;4161599;28;20095;-36
2022/10/06 00:05:13;;;;;;;0.52;0.40;;;;;;;;;;4144463;28;20100;-36
2022/10/06 00:07:15;;;;;;;2.15;0.20;;;;;;;;;;4162204;28;20500;-36
2022/10/06 00:09:16;;;;;;;0.38;0.17;;;;;;;;;;4162372;28;20088;-36
2022/10/06 00:11:18;;;;;;;0.10;0.10;;;;;;;;;;4161669;28;20466;-36
2022/10/06 00:13:19;;;;;;;0.30;0.20;;;;;;;;;;4163160;28;20053;-36
2022/10/06 00:15:24;;;;;;;1.05;0.40;;;;;;;;;;4162797;28;20712;-37
2022/10/06 00:17:25;;;;;;;0.35;0.35;;;;;;;;;;4162432;28;20467;-36
2022/10/06 00:19:26;;;;;;;0.30;0.20;;;;;;;;;;4162452;28;20053;-36
2022/10/06 00:21:28;;;;;;;0.20;0.20;;;;;;;;;;4161506;28;20084;-36
2022/10/06 00:23:29;;;;;;;2.33;0.40;;;;;;;;;;4161411;28;20057;-36
2022/10/06 00:25:30;;;;;;;0.55;0.22;;;;;;;;;;4162825;28;20061;-36
2022/10/06 00:27:37;;;;;;;0.50;0.30;;;;;;;;;;4159552;28;20115;-36
2022/10/06 00:29:41;;;;;;;0.70;0.30;;;;;;;;;;4135399;28;20517;-36
2022/10/06 00:31:42;;;;;;;0.20;0.20;;;;;;;;;;4156015;28;20061;-36
2022/10/06 00:33:44;;;;;;;0.57;0.30;;;;;;;;;;4162609;28;20061;-37
2022/10/06 00:35:55;;;;;;;0.20;0.20;;;;;;;;;;4148557;28;20057;-37
2022/10/06 00:37:56;;;;;;;0.17;0.17;;;;;;;;;;4163117;28;20103;-36
2022/10/06 00:39:57;;;;;;;0.20;0.20;;;;;;;;;;4162936;28;20057;-36
2022/10/06 00:41:59;;;;;;;0.40;0.30;;;;;;;;;;4161179;28;20095;-36
2022/10/06 00:44:00;;;;;;;0.73;0.40;;;;;;;;;;4162115;28;20115;-36
2022/10/06 00:46:02;;;;;;;0.32;0.20;;;;;;;;;;4163141;28;20057;-36
2022/10/06 00:48:19;;;;;;;0.80;0.40;;;;;;;;;;4162513;28;20067;-37
2022/10/06 00:50:21;;;;;;;0.28;0.22;;;;;;;;;;4144922;28;20057;-36
2022/10/06 00:52:27;;;;;;;0.57;0.40;;;;;;;;;;4162384;28;20060;-36
2022/10/06 00:54:29;;;;;;;0.47;0.30;;;;;;;;;;4145008;28;20054;-36
2022/10/06 00:56:30;;;;;;;0.32;0.22;;;;;;;;;;4160626;28;20058;-36
2022/10/06 00:58:32;;;;;;;0.20;0.20;;;;;;;;;;4161209;28;20493;-36
2022/10/06 01:00:34;;;;;;;0.30;0.20;;;;;;;;;;4164288;28;20137;-36
2022/10/06 01:02:41;;;;;;;0.30;0.30;;;;;;;;;;4163031;28;20053;-36
2022/10/06 01:04:45;;;;;;;0.40;0.35;;;;;;;;;;4134662;28;20101;-38
2022/10/06 01:06:50;;;;;;;0.20;0.20;;;;;;;;;;4160884;28;20057;-36
2022/10/06 01:08:53;;;;;;;0.38;0.28;;;;;;;;;;4146895;28;20104;-36
2022/10/06 01:10:54;;;;;;;2.00;0.47;;;;;;;;;;4162676;28;20049;-36
2022/10/06 01:12:56;;;;;;;0.25;0.25;;;;;;;;;;4164355;28;20057;-36
2022/10/06 01:14:57;;;;;;;0.25;0.20;;;;;;;;;;4163880;28;20489;-36
2022/10/06 01:17:20;;;;;;;0.20;0.20;;;;;;;;;;4164331;28;20446;-36
2022/10/06 01:19:43;;;;;;;0.20;0.20;;;;;;;;;;4145842;28;20080;-37
2022/10/06 01:21:46;;;;;;;0.25;0.20;;;;;;;;;;4133708;28;20563;-36
2022/10/06 01:23:48;;;;;;;0.32;0.20;;;;;;;;;;4162800;28;20053;-36
2022/10/06 01:25:50;;;;;;;0.40;0.20;;;;;;;;;;4140448;28;20595;-36
2022/10/06 01:27:53;;;;;;;0.30;0.20;;;;;;;;;;4146351;28;20053;-36
2022/10/06 01:29:58;;;;;;;0.50;0.30;;;;;;;;;;4162588;28;20054;-36
2022/10/06 01:31:59;;;;;;;0.30;0.30;;;;;;;;;;4162914;28;20053;-36
2022/10/06 01:34:00;;;;;;;0.30;0.10;;;;;;;;;;4163587;28;20068;-36
2022/10/06 01:36:03;;;;;;;0.63;0.20;;;;;;;;;;4162784;28;20064;-36
2022/10/06 01:38:04;;;;;;;0.40;0.22;;;;;;;;;;4162118;28;20571;-36
2022/10/06 01:40:06;;;;;;;0.43;0.38;;;;;;;;;;4153362;28;20049;-36
2022/10/06 01:42:09;;;;;;;0.30;0.20;;;;;;;;;;4160276;28;20556;-37
2022/10/06 01:44:11;;;;;;;0.32;0.22;;;;;;;;;;4158224;28;20123;-36
2022/10/06 01:46:14;;;;;;;0.20;0.20;;;;;;;;;;4161929;28;20057;-36
2022/10/06 01:48:15;;;;;;;0.20;0.20;;;;;;;;;;4162243;28;20053;-36
2022/10/06 01:50:17;;;;;;;0.80;0.30;;;;;;;;;;4145561;28;20050;-36
2022/10/06 01:52:19;;;;;;;0.80;0.30;;;;;;;;;;4162091;28;20284;-36
2022/10/06 01:54:21;;;;;;;0.28;0.20;;;;;;;;;;4145245;28;20501;-36
2022/10/06 01:56:22;;;;;;;0.50;0.30;;;;;;;;;;4163364;28;20103;-36
2022/10/06 01:58:24;;;;;;;0.43;0.30;;;;;;;;;;4163206;28;20045;-36
2022/10/06 02:00:26;;;;;;;0.52;0.25;;;;;;;;;;4161948;28;20053;-36
2022/10/06 02:02:30;;;;;;;0.55;0.30;;;;;;;;;;4162653;28;20486;-36
2022/10/06 02:04:32;;;;;;;0.30;0.30;;;;;;;;;;4161377;28;20091;-36
2022/10/06 02:06:34;;;;;;;0.82;0.30;;;;;;;;;;4161527;28;20488;-37
2022/10/06 02:08:35;;;;;;;0.20;0.20;;;;;;;;;;4155819;28;20061;-36
2022/10/06 02:10:38;;;;;;;0.30;0.15;;;;;;;;;;4161658;28;20440;-36
2022/10/06 02:12:49;;;;;;;0.75;0.30;;;;;;;;;;4161897;28;20123;-36
2022/10/06 02:14:53;;;;;;;0.32;0.20;;;;;;;;;;4162955;28;20488;-36
2022/10/06 02:16:54;;;;;;;0.60;0.28;;;;;;;;;;4163055;28;20057;-36
2022/10/06 02:18:55;;;;;;;0.30;0.20;;;;;;;;;;4161553;28;20394;-36
2022/10/06 02:20:57;;;;;;;0.20;0.20;;;;;;;;;;4163101;28;20053;-36
2022/10/06 02:22:58;;;;;;;0.47;0.22;;;;;;;;;;4163207;28;20049;-36
2022/10/06 02:24:59;;;;;;;0.30;0.30;;;;;;;;;;4161473;28;20503;-36
2022/10/06 02:27:01;;;;;;;0.20;0.20;;;;;;;;;;4147888;28;20084;-39
2022/10/06 02:29:02;;;;;;;0.40;0.40;;;;;;;;;;4147291;28;20643;-36
2022/10/06 02:31:07;;;;;;;0.73;0.30;;;;;;;;;;4159796;28;20060;-37
2022/10/06 02:33:08;;;;;;;0.50;0.20;;;;;;;;;;4159742;28;20198;-36
2022/10/06 02:35:11;;;;;;;0.20;0.20;;;;;;;;;;4159368;28;20061;-37
2022/10/06 02:37:14;;;;;;;0.28;0.20;;;;;;;;;;4159391;28;20050;-37
2022/10/06 02:39:16;;;;;;;0.40;0.30;;;;;;;;;;4159235;28;20468;-38
2022/10/06 02:41:17;;;;;;;0.30;0.20;;;;;;;;;;4160779;28;20057;-37
2022/10/06 02:43:20;;;;;;;0.60;0.40;;;;;;;;;;4147074;28;20100;-37
2022/10/06 02:45:21;;;;;;;0.65;0.60;;;;;;;;;;4159880;28;20416;-36
2022/10/06 02:47:24;;;;;;;0.20;0.20;;;;;;;;;;4159465;28;20061;-36
2022/10/06 02:49:25;;;;;;;0.20;0.20;;;;;;;;;;4160352;28;20493;-37
2022/10/06 02:51:27;;;;;;;0.20;0.20;;;;;;;;;;4159532;28;20107;-36
2022/10/06 02:53:29;;;;;;;0.60;0.32;;;;;;;;;;4158135;28;20063;-36
2022/10/06 02:55:30;;;;;;;0.25;0.25;;;;;;;;;;4159743;28;20061;-36
2022/10/06 02:57:31;;;;;;;0.50;0.30;;;;;;;;;;4161040;28;20214;-35
2022/10/06 02:59:34;;;;;;;0.38;0.28;;;;;;;;;;4159321;28;20551;-37
2022/10/06 03:01:37;;;;;;;0.50;0.30;;;;;;;;;;4159332;28;20053;-37
2022/10/06 03:03:48;;;;;;;0.70;0.35;;;;;;;;;;4158230;28;20524;-38
2022/10/06 03:05:58;;;;;;;0.95;0.28;;;;;;;;;;4159836;28;20076;-38
2022/10/06 03:07:59;;;;;;;1.02;0.35;;;;;;;;;;4160492;28;20058;-37
2022/10/06 03:10:00;;;;;;;0.20;0.20;;;;;;;;;;4159922;28;20099;-37
2022/10/06 03:12:02;;;;;;;0.30;0.20;;;;;;;;;;4159088;28;20072;-38
2022/10/06 03:14:16;;;;;;;0.68;0.30;;;;;;;;;;4144537;28;20058;-37
2022/10/06 03:16:30;;;;;;;0.22;0.20;;;;;;;;;;4159239;28;20477;-37
2022/10/06 03:18:34;;;;;;;0.25;0.25;;;;;;;;;;4161312;28;20355;-37
2022/10/06 03:20:36;;;;;;;0.25;0.25;;;;;;;;;;4160696;28;20099;-37
2022/10/06 03:22:37;;;;;;;0.30;0.30;;;;;;;;;;4161241;28;20045;-36
2022/10/06 03:24:40;;;;;;;0.50;0.30;;;;;;;;;;4159254;28;20088;-37
2022/10/06 03:26:44;;;;;;;0.30;0.20;;;;;;;;;;4156819;28;20481;-36
2022/10/06 03:28:46;;;;;;;1.27;0.22;;;;;;;;;;4160943;28;20440;-37
2022/10/06 03:30:47;;;;;;;1.40;0.28;;;;;;;;;;4162544;28;20053;-37
2022/10/06 03:32:51;;;;;;;0.20;0.20;;;;;;;;;;4164063;28;20120;-36
2022/10/06 03:34:52;;;;;;;0.25;0.25;;;;;;;;;;4163608;28;20057;-37
2022/10/06 03:36:54;;;;;;;0.20;0.20;;;;;;;;;;4165474;28;20088;-37
2022/10/06 03:38:58;;;;;;;0.15;0.10;;;;;;;;;;4165178;28;20100;-37
2022/10/06 03:41:05;;;;;;;0.30;0.28;;;;;;;;;;4163860;28;20057;-37
2022/10/06 03:43:08;;;;;;;0.30;0.20;;;;;;;;;;4158927;28;20104;-36
2022/10/06 03:45:09;;;;;;;0.60;0.20;;;;;;;;;;4163845;28;20060;-36
2022/10/06 03:47:11;;;;;;;0.93;0.40;;;;;;;;;;4164049;28;20075;-36
2022/10/06 03:49:12;;;;;;;0.30;0.25;;;;;;;;;;4163431;28;20254;-37
2022/10/06 03:51:17;;;;;;;1.08;0.20;;;;;;;;;;4163752;28;20434;-36
2022/10/06 03:53:24;;;;;;;0.90;0.40;;;;;;;;;;4147464;28;20537;-37
2022/10/06 03:55:25;;;;;;;0.20;0.20;;;;;;;;;;4164031;28;20068;-37
2022/10/06 03:57:26;;;;;;;0.20;0.20;;;;;;;;;;4163023;28;20590;-37
2022/10/06 03:59:32;;;;;;;0.40;0.30;;;;;;;;;;4162195;28;20149;-37
2022/10/06 04:01:39;;;;;;;0.25;0.25;;;;;;;;;;4163061;28;20436;-36
2022/10/06 04:03:42;;;;;;;1.27;0.43;;;;;;;;;;4147024;28;20054;-36
2022/10/06 04:05:55;;;;;;;0.82;0.38;;;;;;;;;;4162871;28;20116;-37
2022/10/06 04:07:57;;;;;;;0.98;0.20;;;;;;;;;;4163791;28;20057;-37
2022/10/06 04:09:58;;;;;;;0.35;0.20;;;;;;;;;;4164763;28;20113;-36
2022/10/06 04:11:59;;;;;;;0.30;0.30;;;;;;;;;;4163500;28;20582;-37
2022/10/06 04:14:07;;;;;;;0.20;0.20;;;;;;;;;;4162845;28;20265;-36
2022/10/06 04:16:13;;;;;;;0.20;0.20;;;;;;;;;;4163670;28;20057;-37
2022/10/06 04:18:15;;;;;;;0.22;0.22;;;;;;;;;;4163903;28;20107;-38
2022/10/06 04:20:17;;;;;;;0.32;0.30;;;;;;;;;;4164285;28;20057;-37
2022/10/06 04:22:18;;;;;;;0.75;0.40;;;;;;;;;;4163782;28;20050;-36
2022/10/06 04:24:19;;;;;;;0.30;0.30;;;;;;;;;;4164830;28;20061;-37
2022/10/06 04:26:29;;;;;;;0.20;0.17;;;;;;;;;;4163277;28;20053;-37
2022/10/06 04:28:31;;;;;;;0.52;0.20;;;;;;;;;;4163132;28;20053;-39
2022/10/06 04:30:33;;;;;;;0.30;0.30;;;;;;;;;;4163334;28;20053;-37
2022/10/06 04:32:34;;;;;;;0.43;0.40;;;;;;;;;;4163366;28;20531;-37
2022/10/06 04:34:36;;;;;;;0.30;0.30;;;;;;;;;;4146302;28;20521;-37
2022/10/06 04:36:40;;;;;;;0.75;0.30;;;;;;;;;;4163153;28;20211;-37
2022/10/06 04:38:42;;;;;;;1.17;0.20;;;;;;;;;;4162812;28;20061;-36
2022/10/06 04:40:43;;;;;;;0.28;0.20;;;;;;;;;;4163163;28;20057;-36
2022/10/06 04:42:45;;;;;;;0.28;0.20;;;;;;;;;;4162006;28;20139;-37
2022/10/06 04:44:49;;;;;;;0.20;0.20;;;;;;;;;;4163108;28;20433;-37
2022/10/06 04:46:50;;;;;;;0.17;0.17;;;;;;;;;;4162236;28;20061;-36
2022/10/06 04:48:54;;;;;;;0.20;0.20;;;;;;;;;;4162576;28;20413;-37
2022/10/06 04:51:04;;;;;;;0.17;0.17;;;;;;;;;;4163146;28;20107;-36
2022/10/06 04:53:05;;;;;;;0.85;0.40;;;;;;;;;;4163398;28;20061;-37
2022/10/06 04:55:07;;;;;;;0.30;0.30;;;;;;;;;;4146156;28;20485;-37
2022/10/06 04:57:08;;;;;;;0.45;0.30;;;;;;;;;;4163217;28;20049;-37
2022/10/06 04:59:10;;;;;;;0.50;0.38;;;;;;;;;;4162763;28;20086;-37
2022/10/06 05:01:16;;;;;;;1.88;0.40;;;;;;;;;;4160146;28;20053;-37
2022/10/06 05:03:18;;;;;;;0.55;0.38;;;;;;;;;;4160203;28;20256;-37
2022/10/06 05:05:19;;;;;;;0.20;0.20;;;;;;;;;;4159893;28;20092;-37
2022/10/06 05:07:21;;;;;;;0.20;0.20;;;;;;;;;;4160896;28;20555;-37
2022/10/06 05:09:22;;;;;;;0.30;0.28;;;;;;;;;;4144215;28;20065;-37
2022/10/06 05:11:29;;;;;;;0.95;0.28;;;;;;;;;;4158677;28;20096;-37
2022/10/06 05:13:30;;;;;;;0.52;0.30;;;;;;;;;;4132113;28;20464;-37
2022/10/06 05:15:32;;;;;;;0.30;0.30;;;;;;;;;;4160494;28;20069;-37
2022/10/06 05:17:34;;;;;;;0.30;0.20;;;;;;;;;;4159846;28;20143;-37
2022/10/06 05:19:35;;;;;;;0.20;0.20;;;;;;;;;;4156352;28;20049;-37
2022/10/06 05:21:37;;;;;;;0.30;0.20;;;;;;;;;;4157124;28;20046;-37
2022/10/06 05:23:40;;;;;;;0.10;0.10;;;;;;;;;;4159866;28;20115;-37
2022/10/06 05:25:49;;;;;;;0.55;0.13;;;;;;;;;;4156825;28;20191;-37
2022/10/06 05:27:50;;;;;;;;;;;;;;;;;;4161408;28;20057;-37
2022/10/06 05:29:51;;;;;;;0.22;0.22;;;;;;;;;;4159997;28;19929;-36
2022/10/06 05:31:54;;;;;;;0.10;0.10;;;;;;;;;;4160163;28;20187;-37
2022/10/06 05:33:56;;;;;;;0.15;0.15;;;;;;;;;;4155573;28;20568;-37
2022/10/06 05:35:59;;;;;;;0.30;0.20;;;;;;;;;;4160136;28;20461;-37
2022/10/06 05:38:01;;;;;;;0.20;0.20;;;;;;;;;;4143609;28;20057;-38
2022/10/06 05:40:03;;;;;;;0.20;0.20;;;;;;;;;;4161404;28;20054;-37
2022/10/06 05:42:04;;;;;;;0.30;0.20;;;;;;;;;;4156261;28;20418;-38
2022/10/06 05:44:07;;;;;;;0.10;0.10;;;;;;;;;;4158036;28;20053;-36
2022/10/06 05:46:18;;;;;;;0.65;0.30;;;;;;;;;;4158374;28;20095;-37
2022/10/06 05:48:20;;;;;;;0.30;0.30;;;;;;;;;;4141285;28;20104;-39
2022/10/06 05:50:22;;;;;;;0.25;0.20;;;;;;;;;;4160702;28;20065;-37
2022/10/06 05:52:24;;;;;;;0.17;0.10;;;;;;;;;;4157325;28;20053;-37
2022/10/06 05:54:26;;;;;;;0.10;0.10;;;;;;;;;;4151410;28;20142;-37
2022/10/06 05:56:29;;;;;;;0.20;0.10;;;;;;;;;;4135523;28;20054;-38
2022/10/06 05:58:32;;;;;;;0.32;0.30;;;;;;;;;;4157752;28;20090;-37
2022/10/06 06:00:33;;;;;;;0.30;0.20;;;;;;;;;;4156421;28;20102;-36
2022/10/06 06:02:35;;;;;;;0.30;0.20;;;;;;;;;;4156171;28;20050;-37
2022/10/06 06:04:37;;;;;;;0.20;0.20;;;;;;;;;;4153358;28;20127;-37
2022/10/06 06:06:43;;;;;;;0.10;0.10;;;;;;;;;;4159186;28;20053;-37
2022/10/06 06:08:50;;;;;;;;;;;;;;;;;;4157309;28;20072;-39
2022/10/06 06:10:52;;;;;;;1.10;0.22;;;;;;;;;;4157221;28;20284;-37
2022/10/06 06:12:53;;;;;;;0.10;0.10;;;;;;;;;;4140649;28;20057;-37
2022/10/06 06:17:37;;;;;;;0.13;0.10;;;;;;;;;;4166065;28;20409;-37
2022/10/06 06:19:39;;;;;;;0.35;0.20;;;;;;;;;;4172912;28;20061;-37
2022/10/06 06:21:42;;;;;;;1.30;0.10;;;;;;;;;;4158278;28;20456;-38
2022/10/06 06:23:46;;;;;;;0.95;0.40;;;;;;;;;;4137196;28;20053;-38
2022/10/06 06:26:16;;;;;;;1.52;0.30;;;;;;;;;;4152046;28;20049;-37
2022/10/06 06:28:21;;;;;;;1.40;0.50;;;;;;;;;;4146548;28;20366;-37
2022/10/06 06:30:24;;;;;;;1.50;0.40;;;;;;;;;;4135581;28;20054;-37
2022/10/06 06:32:26;;;;;;;1.77;0.35;;;;;;;;;;4150964;28;20169;-37
2022/10/06 06:34:28;;;;;;;1.80;0.38;;;;;;;;;;4146583;28;20297;-36
2022/10/06 06:36:36;;;;;;;0.80;0.20;;;;;;;;;;4146614;28;20065;-38
2022/10/06 06:38:42;;;;;;;1.15;0.35;;;;;;;;;;4147846;28;20111;-38
2022/10/06 06:40:43;;;;;;;3.20;0.30;;;;;;;;;;4152203;28;20120;-37
2022/10/06 06:42:46;;;;;;;1.75;0.55;;;;;;;;;;4151345;28;20559;-37
2022/10/06 06:44:56;;;;;;;1.80;0.60;;;;;;;;;;4149033;28;21593;-38
2022/10/06 06:47:16;;;;;;;1.83;0.50;;;;;;;;;;4148218;28;20307;-40
2022/10/06 06:49:19;;;;;;;4.30;0.57;;;;;;;;;;4132991;28;20461;-39
2022/10/06 06:51:26;;;;;;;4.60;0.40;;;;;;;;;;4131395;28;20116;-47
2022/10/06 06:53:46;;;;;;;3.53;0.65;;;;;;;;;;4127929;28;20088;-40
2022/10/06 06:55:51;;;;;;;4.20;1.23;;;;;;;;;;4145281;28;20060;-40
2022/10/06 06:57:54;;;;;;;6.50;0.57;;;;;;;;;;4139656;28;21038;-41
2022/10/06 06:59:58;;;;;;;4.80;0.70;;;;;;;;;;4142156;28;20053;-40
2022/10/06 07:02:00;;;;;;;4.13;1.10;;;;;;;;;;4135373;28;20079;-40
2022/10/06 07:04:03;;;;;;;7.75;1.08;;;;;;;;;;4142701;28;20131;-40
2022/10/06 07:06:14;;;;;;;3.78;1.20;;;;;;;;;;4144462;28;20100;-39
2022/10/06 07:08:19;;;;;;;4.60;1.30;;;;;;;;;;4152222;28;20061;-40
2022/10/06 07:10:20;;;;;;;7.57;1.70;;;;;;;;;;4147750;28;20574;-39
2022/10/06 07:12:24;;;;;;;7.60;1.25;;;;;;;;;;4142466;28;20123;-39
2022/10/06 07:14:29;;;;;;;6.45;1.17;;;;;;;;;;4142363;28;20083;-40
2022/10/06 07:25:54;;;;;;;5.07;0.90;;;;;;;;;;4146537;28;20068;-43
2022/10/06 07:27:56;;;;;;;6.25;0.93;;;;;;;;;;4138471;28;20062;-41
2022/10/06 07:30:05;;;;;;;6.15;1.05;;;;;;;;;;4133066;28;20112;-40
2022/10/06 07:32:06;;;;;;;1.40;0.50;;;;;;;;;;4127552;28;20104;-43
2022/10/06 07:34:09;;;;;;;4.07;1.17;;;;;;;;;;4118426;28;20677;-41
2022/10/06 07:36:10;;;;;;;2.75;0.70;;;;;;;;;;4130679;28;20068;-44
2022/10/06 07:38:12;;;;;;;4.03;0.60;;;;;;;;;;4127734;28;20132;-41
2022/10/06 07:40:18;;;;;;;5.18;0.90;;;;;;;;;;4140261;28;20444;-43
2022/10/06 07:42:20;;;;;;;3.90;0.85;;;;;;;;;;4139429;28;20428;-44
2022/10/06 07:44:22;;;;;;;4.00;0.70;;;;;;;;;;4133652;28;20739;-43
2022/10/06 07:46:24;;;;;;;1.83;0.50;;;;;;;;;;4133804;28;20080;-43
2022/10/06 07:48:33;;;;;;;2.63;0.80;;;;;;;;;;4110487;28;20061;-43
2022/10/06 07:50:37;;;;;;;1.92;0.55;;;;;;;;;;4142689;28;20123;-41
2022/10/06 07:52:39;;;;;;;1.60;0.40;;;;;;;;;;4129552;28;20186;-41
2022/10/06 07:54:43;;;;;;;4.72;1.00;;;;;;;;;;4135612;28;20131;-41
2022/10/06 07:57:09;;;;;;;4.07;0.60;;;;;;;;;;4140262;28;21769;-41
2022/10/06 07:59:10;;;;;;;1.58;0.43;;;;;;;;;;4119863;28;20053;-40
2022/10/06 08:01:12;;;;;;;2.42;0.60;;;;;;;;;;4138412;28;20320;-39
2022/10/06 08:03:18;;;;;;;4.03;0.57;;;;;;;;;;4123219;28;20127;-41
2022/10/06 08:05:20;;;;;;;1.42;0.77;;;;;;;;;;4131740;28;20058;-42
2022/10/06 08:07:21;;;;;;;2.72;0.52;;;;;;;;;;4135713;28;20147;-41
2022/10/06 08:09:23;;;;;;;3.83;0.47;;;;;;;;;;4137458;28;20053;-40
2022/10/06 08:11:24;;;;;;;6.55;0.73;;;;;;;;;;4133514;28;20358;-40
2022/10/06 08:13:25;;;;;;;4.05;0.60;;;;;;;;;;4144020;28;20492;-41
2022/10/06 08:15:26;;;;;;;0.50;0.20;;;;;;;;;;4142700;28;20107;-42
2022/10/06 08:17:28;;;;;;;1.48;0.30;;;;;;;;;;4144530;28;20076;-43
2022/10/06 08:19:29;;;;;;;2.05;0.20;;;;;;;;;;4141789;28;20053;-43
2022/10/06 08:21:34;;;;;;;3.47;0.38;;;;;;;;;;4137837;28;20459;-41
2022/10/06 08:23:41;;;;;;;1.02;0.40;;;;;;;;;;4133950;28;20100;-41
2022/10/06 08:25:49;;;;;;;1.83;0.40;;;;;;;;;;4142658;28;20057;-41
2022/10/06 08:27:51;;;;;;;2.92;0.47;;;;;;;;;;4142273;28;20053;-38
2022/10/06 08:29:53;;;;;;;1.00;0.30;;;;;;;;;;4139109;28;20049;-40
2022/10/06 08:31:58;;;;;;;2.67;0.50;;;;;;;;;;4128120;28;20115;-42
2022/10/06 08:34:20;;;;;;;0.85;0.30;;;;;;;;;;4125246;28;20087;-39
2022/10/06 08:36:25;;;;;;;1.13;0.45;;;;;;;;;;4132943;28;20068;-41
2022/10/06 08:38:26;;;;;;;1.45;0.30;;;;;;;;;;4130979;28;20091;-39
2022/10/06 08:40:28;;;;;;;1.75;0.32;;;;;;;;;;4121997;28;20295;-41
2022/10/06 08:42:42;;;;;;;0.93;0.35;;;;;;;;;;4132117;28;20050;-41
2022/10/06 08:44:48;;;;;;;0.47;0.30;;;;;;;;;;4136215;28;20135;-44
2022/10/06 08:46:59;;;;;;;0.65;0.20;;;;;;;;;;4131142;28;20111;-41
2022/10/06 08:49:01;;;;;;;1.13;0.32;;;;;;;;;;4139123;28;20131;-40
2022/10/06 08:51:18;;;;;;;0.85;0.30;;;;;;;;;;4130924;28;20054;-42
2022/10/06 08:53:39;;;;;;;2.75;0.30;;;;;;;;;;4137931;28;20057;-42
2022/10/06 08:56:03;;;;;;;4.40;0.40;;;;;;;;;;4132914;28;20053;-42
2022/10/06 08:58:38;;;;;;;1.85;0.30;;;;;;;;;;4129900;28;20050;-42
2022/10/06 09:00:39;;;;;;;1.23;0.20;;;;;;;;;;4131681;28;20810;-42
2022/10/06 09:02:47;;;;;;;1.63;0.40;;;;;;;;;;4133028;28;20050;-43
2022/10/06 09:04:50;;;;;;;2.63;0.20;;;;;;;;;;4133594;28;20685;-42
2022/10/06 09:07:02;;;;;;;0.70;0.20;;;;;;;;;;4136983;28;20061;-41
2022/10/06 09:09:17;;;;;;;0.93;0.20;;;;;;;;;;4132386;28;20058;-42
2022/10/06 09:11:44;;;;;;;1.65;0.40;;;;;;;;;;4136632;28;20504;-43
2022/10/06 09:13:52;;;;;;;0.50;0.30;;;;;;;;;;4132074;28;20524;-41
2022/10/06 09:15:56;;;;;;;0.95;0.20;;;;;;;;;;4130583;28;20100;-42
2022/10/06 09:18:27;;;;;;;2.10;0.13;;;;;;;;;;4119520;28;20747;-41
2022/10/06 09:20:41;;;;;;;0.60;0.20;;;;;;;;;;4119289;28;20102;-42
2022/10/06 09:22:43;;;;;;;2.28;0.25;;;;;;;;;;4137999;28;20049;-41
2022/10/06 09:24:48;;;;;;;0.52;0.30;;;;;;;;;;4135647;28;20749;-41
2022/10/06 09:26:50;;;;;;;1.55;0.30;;;;;;;;;;4132874;28;20135;-47
2022/10/06 09:28:52;;;;;;;2.03;0.38;;;;;;;;;;4126884;28;20492;-43
2022/10/06 09:30:53;;;;;;;1.20;0.22;;;;;;;;;;4113759;28;20602;-42
2022/10/06 09:33:01;;;;;;;1.13;0.30;;;;;;;;;;4111600;28;20103;-43
2022/10/06 09:35:16;;;;;;;1.42;0.28;;;;;;;;;;4130919;28;20053;-43
2022/10/06 09:37:18;;;;;;;2.53;0.35;;;;;;;;;;4134521;28;20776;-43
2022/10/06 09:39:25;;;;;;;4.05;0.30;;;;;;;;;;4133927;28;20061;-42
2022/10/06 09:41:33;;;;;;;1.40;0.52;;;;;;;;;;4133599;28;20449;-43
2022/10/06 09:43:34;;;;;;;1.45;0.30;;;;;;;;;;4145264;28;20152;-45
2022/10/06 09:45:36;;;;;;;0.73;0.40;;;;;;;;;;4134899;28;20057;-44
2022/10/06 09:47:43;;;;;;;1.88;0.20;;;;;;;;;;4132371;28;20057;-41
2022/10/06 09:50:20;;;;;;;1.60;0.30;;;;;;;;;;4134744;28;20119;-42
2022/10/06 09:52:22;;;;;;;1.33;0.25;;;;;;;;;;4136746;28;20057;-40
2022/10/06 09:54:24;;;;;;;0.90;0.22;;;;;;;;;;4138532;28;20060;-41
2022/10/06 09:56:25;;;;;;;2.35;0.50;;;;;;;;;;4141223;28;20096;-40
2022/10/06 09:58:33;;;;;;;1.85;0.20;;;;;;;;;;4142255;28;20053;-41
2022/10/06 10:00:57;;;;;;;0.88;0.32;;;;;;;;;;4138998;28;20061;-41
2022/10/06 10:03:03;;;;;;;1.70;0.38;;;;;;;;;;4130177;28;20511;-42
2022/10/06 10:05:17;;;;;;;0.63;0.20;;;;;;;;;;4142286;28;20150;-43
2022/10/06 10:07:24;;;;;;;0.98;0.35;;;;;;;;;;4134985;28;20057;-41
2022/10/06 10:09:27;;;;;;;1.70;0.40;;;;;;;;;;4124651;28;20061;-42
2022/10/06 10:13:51;;;;;;;0.50;0.20;;;;;;;;;;4127756;28;20122;-40
2022/10/06 10:16:00;;;;;;;4.22;0.38;;;;;;;;;;4134300;28;20574;-41
2022/10/06 10:18:11;;;;;;;1.00;0.30;;;;;;;;;;4142892;28;20493;-39
2022/10/06 10:20:26;;;;;;;0.30;0.20;;;;;;;;;;4135337;28;20053;-40
2022/10/06 10:22:40;;;;;;;1.23;0.50;;;;;;;;;;4134538;28;20054;-40
2022/10/06 10:25:08;;;;;;;3.47;0.55;;;;;;;;;;4142388;28;20254;-40
2022/10/06 10:27:44;;;;;;;0.90;0.28;;;;;;;;;;4137241;28;20057;-42
2022/10/06 10:30:22;;;;;;;1.20;0.63;;;;;;;;;;4134063;28;20128;-42
2022/10/06 10:32:34;;;;;;;0.52;0.28;;;;;;;;;;4138898;28;20450;-39
2022/10/06 10:34:45;;;;;;;2.60;0.30;;;;;;;;;;4143903;28;20070;-40
2022/10/06 10:36:56;;;;;;;2.55;0.40;;;;;;;;;;4141704;28;20049;-40
2022/10/06 10:38:58;;;;;;;0.93;0.28;;;;;;;;;;4139893;28;20775;-39
2022/10/06 10:41:12;;;;;;;1.95;0.25;;;;;;;;;;4138779;28;20143;-39
2022/10/06 10:43:22;;;;;;;0.82;0.28;;;;;;;;;;4140857;28;20781;-40
2022/10/06 10:45:28;;;;;;;2.72;0.47;;;;;;;;;;4139340;28;20107;-40
2022/10/06 10:47:36;;;;;;;1.13;0.20;;;;;;;;;;4127371;28;20054;-40
2022/10/06 10:49:38;;;;;;;0.30;0.10;;;;;;;;;;4143391;28;20097;-41
2022/10/06 10:51:48;;;;;;;1.05;0.30;;;;;;;;;;4129744;28;20175;-41
2022/10/06 10:53:50;;;;;;;;;;;;;;;;;;4137316;28;20722;-40
2022/10/06 10:55:52;;;;;;;0.75;0.30;;;;;;;;;;4119568;28;19955;-41
2022/10/06 10:57:57;;;;;;;1.17;0.30;;;;;;;;;;4133331;28;20057;-41
2022/10/06 11:00:00;;;;;;;1.02;0.30;;;;;;;;;;4132464;28;20088;-42
2022/10/06 11:02:10;;;;;;;0.75;0.20;;;;;;;;;;4123184;28;20084;-42
2022/10/06 11:04:12;;;;;;;1.20;0.32;;;;;;;;;;4132680;28;20905;-42
2022/10/06 11:06:21;;;;;;;2.20;0.38;;;;;;;;;;4137613;28;20104;-41
2022/10/06 11:08:46;;;;;;;0.70;0.25;;;;;;;;;;4132004;28;20053;-42
2022/10/06 11:11:03;;;;;;;0.32;0.10;;;;;;;;;;4139066;28;20286;-42
2022/10/06 11:13:24;;;;;;;1.23;0.30;;;;;;;;;;4139526;28;20058;-42
2022/10/06 11:15:56;;;;;;;2.05;0.25;;;;;;;;;;4127938;28;20057;-39
2022/10/06 11:18:07;;;;;;;1.17;0.45;;;;;;;;;;4136880;28;20072;-37
2022/10/06 11:20:19;;;;;;;1.02;0.10;;;;;;;;;;4136629;28;20079;-39
2022/10/06 11:22:33;;;;;;;1.05;0.28;;;;;;;;;;4138235;28;20103;-39
2022/10/06 11:24:44;;;;;;;0.35;0.20;;;;;;;;;;4144235;28;20119;-38
2022/10/06 11:27:20;;;;;;;2.38;0.47;;;;;;;;;;4146353;28;20707;-38
2022/10/06 11:29:36;;;;;;;1.00;0.17;;;;;;;;;;4141096;28;20156;-37
2022/10/06 11:31:40;;;;;;;1.55;0.30;;;;;;;;;;4141690;28;20570;-38
2022/10/06 11:33:56;;;;;;;1.38;0.30;;;;;;;;;;4141172;28;20053;-37
2022/10/06 11:35:58;;;;;;;1.90;0.20;;;;;;;;;;4137109;28;20119;-37
2022/10/06 11:38:23;;;;;;;0.75;0.22;;;;;;;;;;4144553;28;20062;-38
2022/10/06 11:40:50;;;;;;;2.65;0.30;;;;;;;;;;4146540;28;20049;-38
2022/10/06 11:42:58;;;;;;;0.88;0.20;;;;;;;;;;4138697;28;20677;-38
2022/10/06 11:45:04;;;;;;;2.03;0.30;;;;;;;;;;4140664;28;20388;-38
2022/10/06 11:47:19;;;;;;;1.45;0.28;;;;;;;;;;4142121;28;20131;-38
2022/10/06 11:49:32;;;;;;;1.70;0.30;;;;;;;;;;4142109;28;20054;-37
2022/10/06 11:51:33;;;;;;;3.15;0.10;;;;;;;;;;4139830;28;20646;-38
2022/10/06 11:53:37;;;;;;;0.20;0.20;;;;;;;;;;4145380;28;20828;-38
2022/10/06 11:55:39;;;;;;;1.15;0.30;;;;;;;;;;4140264;28;20057;-36
2022/10/06 11:58:08;;;;;;;0.20;0.10;;;;;;;;;;4138302;28;20095;-38
2022/10/06 12:00:09;;;;;;;0.43;0.20;;;;;;;;;;4140024;28;20049;-38
2022/10/06 12:02:31;;;;;;;1.50;0.20;;;;;;;;;;4136111;28;20556;-38
2022/10/06 12:04:32;;;;;;;1.80;0.20;;;;;;;;;;4147098;28;20053;-38
2022/10/06 12:06:45;;;;;;;0.40;0.15;;;;;;;;;;4142176;28;20088;-38
2022/10/06 12:08:47;;;;;;;0.55;0.20;;;;;;;;;;4143775;28;20078;-39
2022/10/06 12:10:49;;;;;;;3.13;0.20;;;;;;;;;;4141466;28;20320;-38
2022/10/06 12:12:52;;;;;;;2.92;0.30;;;;;;;;;;4138523;28;20061;-38
2022/10/06 12:14:58;;;;;;;1.08;0.25;;;;;;;;;;4146135;28;20108;-38
2022/10/06 12:17:06;;;;;;;0.38;0.10;;;;;;;;;;4151174;28;20170;-39
2022/10/06 12:20:03;;;;;;;0.22;0.10;;;;;;;;;;4146403;28;20057;-38
2022/10/06 12:22:36;;;;;;;0.30;0.10;;;;;;;;;;4129744;28;20098;-38
2022/10/06 12:25:04;;;;;;;2.38;0.15;;;;;;;;;;4148239;28;20060;-38
2022/10/06 12:27:17;;;;;;;0.57;0.17;;;;;;;;;;4145473;28;20438;-37
2022/10/06 12:29:30;;;;;;;0.50;0.20;;;;;;;;;;4149881;28;20515;-37
2022/10/06 12:31:46;;;;;;;0.30;0.20;;;;;;;;;;4147291;28;20049;-38
2022/10/06 12:33:48;;;;;;;0.63;0.20;;;;;;;;;;4133218;28;20046;-38
2022/10/06 12:36:00;;;;;;;1.55;0.20;;;;;;;;;;4151406;28;20481;-37
2022/10/06 12:38:06;;;;;;;0.60;0.30;;;;;;;;;;4140421;28;20228;-38
2022/10/06 12:40:47;;;;;;;1.20;0.10;;;;;;;;;;4144117;28;21948;-38
2022/10/06 12:42:49;;;;;;;0.88;0.20;;;;;;;;;;4140739;28;20077;-37
2022/10/06 12:44:52;;;;;;;2.35;0.20;;;;;;;;;;4139384;28;20942;-39
2022/10/06 12:46:54;;;;;;;0.93;0.22;;;;;;;;;;4145239;28;20058;-37
2022/10/06 12:49:03;;;;;;;2.28;0.20;;;;;;;;;;4143334;28;20061;-38
2022/10/06 12:51:11;;;;;;;0.90;0.20;;;;;;;;;;4149107;28;20057;-38